createdAt,value
2019-04-28T00:00:08.850Z,8.20
2019-04-28T00:02:41.909Z,8.00
2019-04-28T00:05:15.048Z,7.80
2019-04-28T00:07:48.096Z,7.90
2019-04-28T00:10:21.267Z,8.00
2019-04-28T00:12:54.608Z,8.00
2019-04-28T00:15:28.268Z,8.00
2019-04-28T00:18:04.098Z,7.80
2019-04-28T00:20:37.909Z,7.90
2019-04-28T00:23:28.168Z,7.90
2019-04-28T00:26:18.807Z,8.00
2019-04-28T00:28:54.663Z,7.90
2019-04-28T00:31:27.507Z,7.80
2019-04-28T00:34:01.259Z,8.10
2019-04-28T00:36:35.028Z,8.10
2019-04-28T00:39:08.628Z,8.10
2019-04-28T00:41:42.053Z,8.40
2019-04-28T00:44:16.030Z,8.40
2019-04-28T00:46:51.080Z,8.30
2019-04-28T00:49:42.049Z,8.30
2019-04-28T00:52:16.238Z,8.20
2019-04-28T00:54:49.652Z,8.20
2019-04-28T00:57:23.137Z,8.40
2019-04-28T00:59:58.744Z,8.30
2019-04-28T01:02:32.344Z,8.30
2019-04-28T01:05:05.248Z,8.30
2019-04-28T01:07:38.328Z,8.30
2019-04-28T01:10:11.520Z,8.30
2019-04-28T01:12:46.604Z,8.50
2019-04-28T01:15:39.583Z,8.40
2019-04-28T01:18:23.969Z,8.40
2019-04-28T01:20:57.448Z,8.60
2019-04-28T01:23:30.650Z,8.70
2019-04-28T01:26:03.451Z,8.80
2019-04-28T01:28:36.648Z,8.90
2019-04-28T01:31:11.588Z,8.90
2019-04-28T01:33:50.176Z,8.90
2019-04-28T01:36:23.688Z,9.00
2019-04-28T01:38:56.628Z,9.00
2019-04-28T01:41:30.228Z,8.90
2019-04-28T01:44:03.226Z,8.90
2019-04-28T01:46:36.828Z,8.80
2019-04-28T01:49:10.128Z,8.90
2019-04-28T01:51:43.149Z,8.80
2019-04-28T01:54:16.070Z,8.90
2019-04-28T01:56:50.251Z,9.00
2019-04-28T01:59:23.556Z,9.00
2019-04-28T02:01:56.589Z,9.00
2019-04-28T02:04:32.106Z,9.20
2019-04-28T02:07:04.017Z,9.00
2019-04-28T02:09:36.872Z,9.00
2019-04-28T02:12:10.627Z,8.90
2019-04-28T02:14:43.829Z,8.90
2019-04-28T02:17:16.836Z,8.90
2019-04-28T02:19:51.562Z,8.80
2019-04-28T02:22:26.068Z,8.70
2019-04-28T02:25:00.295Z,8.50
2019-04-28T02:27:33.609Z,8.20
2019-04-28T02:30:10.977Z,8.30
2019-04-28T02:32:42.909Z,8.20
2019-04-28T02:35:16.629Z,8.20
2019-04-28T02:37:50.484Z,8.00
2019-04-28T02:40:23.649Z,8.00
2019-04-28T02:42:56.556Z,8.10
2019-04-28T02:45:31.597Z,8.10
2019-04-28T02:48:05.603Z,8.00
2019-04-28T02:50:50.926Z,8.00
2019-04-28T02:53:33.168Z,8.00
2019-04-28T02:56:02.877Z,8.20
2019-04-28T02:58:36.109Z,8.20
2019-04-28T03:01:18.071Z,8.10
2019-04-28T03:03:43.990Z,8.00
2019-04-28T03:06:17.007Z,8.00
2019-04-28T03:08:50.693Z,7.80
2019-04-28T03:11:24.149Z,7.60
2019-04-28T03:13:57.472Z,7.50
2019-04-28T03:16:30.586Z,7.40
2019-04-28T03:19:03.414Z,7.40
2019-04-28T03:21:36.449Z,7.40
2019-04-28T03:24:10.942Z,7.60
2019-04-28T03:26:50.717Z,7.50
2019-04-28T03:29:34.798Z,7.60
2019-04-28T03:32:30.578Z,7.50
2019-04-28T03:34:53.812Z,7.40
2019-04-28T03:37:24.464Z,7.60
2019-04-28T03:40:00.541Z,7.70
2019-04-28T03:42:33.849Z,7.70
2019-04-28T03:45:11.161Z,7.70
2019-04-28T03:47:43.590Z,7.50
2019-04-28T03:50:16.571Z,7.40
2019-04-28T03:52:51.124Z,7.30
2019-04-28T03:55:24.448Z,7.30
2019-04-28T03:57:57.758Z,7.30
2019-04-28T04:00:31.460Z,7.40
2019-04-28T04:03:04.860Z,7.40
2019-04-28T04:05:40.362Z,7.60
2019-04-28T04:08:13.088Z,7.30
2019-04-28T04:10:53.905Z,7.10
2019-04-28T04:13:34.588Z,7.10
2019-04-28T04:16:12.730Z,7.10
2019-04-28T04:18:52.991Z,7.00
2019-04-28T04:21:22.577Z,7.00
2019-04-28T04:23:55.469Z,7.10
2019-04-28T04:26:32.885Z,7.00
2019-04-28T04:29:03.027Z,7.30
2019-04-28T04:31:36.049Z,7.30
2019-04-28T04:34:10.681Z,7.10
2019-04-28T04:36:44.149Z,7.00
2019-04-28T04:39:20.496Z,7.10
2019-04-28T04:41:52.890Z,7.30
2019-04-28T04:44:25.909Z,7.30
2019-04-28T04:47:00.963Z,7.30
2019-04-28T04:49:34.211Z,7.50
2019-04-28T04:52:07.509Z,7.50
2019-04-28T04:54:40.488Z,7.40
2019-04-28T04:57:13.609Z,7.10
2019-04-28T04:59:46.592Z,7.20
2019-04-28T05:02:29.356Z,7.10
2019-04-28T05:04:57.507Z,7.10
2019-04-28T05:07:31.376Z,7.20
2019-04-28T05:10:04.508Z,7.40
2019-04-28T05:12:37.707Z,7.20
2019-04-28T05:15:10.583Z,7.30
2019-04-28T05:17:43.616Z,7.10
2019-04-28T05:20:16.576Z,7.10
2019-04-28T05:22:57.148Z,7.20
2019-04-28T05:25:32.624Z,7.10
2019-04-28T05:28:06.568Z,7.40
2019-04-28T05:30:42.850Z,7.30
2019-04-28T05:33:15.916Z,7.90
2019-04-28T05:35:50.098Z,7.80
2019-04-28T05:38:23.456Z,7.60
2019-04-28T05:40:56.835Z,7.50
2019-04-28T05:43:30.002Z,7.40
2019-04-28T05:46:03.317Z,7.40
2019-04-28T05:48:37.776Z,7.50
2019-04-28T05:51:24.176Z,7.50
2019-04-28T05:53:59.543Z,7.60
2019-04-28T05:56:34.869Z,8.10
2019-04-28T05:59:09.775Z,8.40
2019-04-28T06:02:00.663Z,8.60
2019-04-28T06:04:33.937Z,8.80
2019-04-28T06:07:09.988Z,9.00
2019-04-28T06:09:47.548Z,9.10
2019-04-28T06:12:21.161Z,9.20
2019-04-28T06:14:54.068Z,9.30
2019-04-28T06:17:26.976Z,9.50
2019-04-28T06:20:00.227Z,9.60
2019-04-28T06:22:33.969Z,9.60
2019-04-28T06:25:07.109Z,9.70
2019-04-28T06:27:40.447Z,9.70
2019-04-28T06:30:13.408Z,9.80
2019-04-28T06:32:46.308Z,9.80
2019-04-28T06:35:19.111Z,9.70
2019-04-28T06:37:52.319Z,9.60
2019-04-28T06:40:25.290Z,9.70
2019-04-28T06:42:58.270Z,9.70
2019-04-28T06:45:31.560Z,9.70
2019-04-28T06:48:04.729Z,9.70
2019-04-28T06:50:37.671Z,9.60
2019-04-28T06:53:10.671Z,9.70
2019-04-28T06:55:43.550Z,9.80
2019-04-28T06:58:16.671Z,9.90
2019-04-28T07:00:49.838Z,9.90
2019-04-28T07:03:23.508Z,9.80
2019-04-28T07:05:56.789Z,9.90
2019-04-28T07:08:29.988Z,9.90
2019-04-28T07:11:03.174Z,10.00
2019-04-28T07:13:36.395Z,10.10
2019-04-28T07:16:09.596Z,10.20
2019-04-28T07:18:42.948Z,10.20
2019-04-28T07:21:20.307Z,10.40
2019-04-28T07:23:53.110Z,10.60
2019-04-28T07:26:26.049Z,10.70
2019-04-28T07:28:59.171Z,10.70
2019-04-28T07:31:32.252Z,10.80
2019-04-28T07:34:06.071Z,10.80
2019-04-28T07:36:39.040Z,11.10
2019-04-28T07:39:11.928Z,10.90
2019-04-28T07:41:44.768Z,10.90
2019-04-28T07:44:17.709Z,11.20
2019-04-28T07:46:51.730Z,11.40
2019-04-28T07:49:24.648Z,11.70
2019-04-28T07:52:14.627Z,11.60
2019-04-28T07:54:47.748Z,11.50
2019-04-28T07:57:20.891Z,11.50
2019-04-28T07:59:54.155Z,11.50
2019-04-28T08:02:27.351Z,11.40
2019-04-28T08:05:00.408Z,11.50
2019-04-28T08:07:33.368Z,11.40
2019-04-28T08:10:06.427Z,11.40
2019-04-28T08:12:39.548Z,11.30
2019-04-28T08:15:13.111Z,11.40
2019-04-28T08:17:46.190Z,11.30
2019-04-28T08:20:19.290Z,11.50
2019-04-28T08:22:52.438Z,11.60
2019-04-28T08:25:25.858Z,11.60
2019-04-28T08:27:58.817Z,11.80
2019-04-28T08:30:32.051Z,11.90
2019-04-28T08:33:09.829Z,12.00
2019-04-28T08:35:42.849Z,12.10
2019-04-28T08:38:15.988Z,12.20
2019-04-28T08:40:49.068Z,12.10
2019-04-28T08:43:22.867Z,12.00
2019-04-28T08:45:55.808Z,12.00
2019-04-28T08:48:28.848Z,12.20
2019-04-28T08:51:01.962Z,12.10
2019-04-28T08:53:35.068Z,12.00
2019-04-28T08:56:08.396Z,11.90
2019-04-28T08:58:41.387Z,11.90
2019-04-28T09:01:14.952Z,11.80
2019-04-28T09:03:48.197Z,11.80
2019-04-28T09:06:21.295Z,11.60
2019-04-28T09:08:54.432Z,11.70
2019-04-28T09:11:28.149Z,11.80
2019-04-28T09:14:03.408Z,11.80
2019-04-28T09:16:36.408Z,11.80
2019-04-28T09:19:09.329Z,11.80
2019-04-28T09:21:42.626Z,11.90
2019-04-28T09:24:15.607Z,11.90
2019-04-28T09:26:48.976Z,11.90
2019-04-28T09:29:21.968Z,12.10
2019-04-28T09:31:54.948Z,12.10
2019-04-28T09:34:28.757Z,12.00
2019-04-28T09:37:02.889Z,11.90
2019-04-28T09:39:53.749Z,12.00
2019-04-28T09:42:29.367Z,12.30
2019-04-28T09:45:20.060Z,12.40
2019-04-28T09:47:52.955Z,12.30
2019-04-28T09:50:26.496Z,12.40
2019-04-28T09:52:59.467Z,12.40
2019-04-28T09:55:34.712Z,12.50
2019-04-28T09:58:07.748Z,12.60
2019-04-28T10:00:42.171Z,12.60
2019-04-28T10:03:15.428Z,12.80
2019-04-28T10:05:48.407Z,12.80
2019-04-28T10:08:21.516Z,12.80
2019-04-28T10:10:54.755Z,13.00
2019-04-28T10:13:27.728Z,12.70
2019-04-28T10:16:00.736Z,12.80
2019-04-28T10:18:33.908Z,12.70
2019-04-28T10:21:07.468Z,12.50
2019-04-28T10:23:40.475Z,12.60
2019-04-28T10:26:13.675Z,12.80
2019-04-28T10:28:46.836Z,12.70
2019-04-28T10:31:19.907Z,12.70
2019-04-28T10:33:54.496Z,12.60
2019-04-28T10:36:29.148Z,12.50
2019-04-28T10:39:19.988Z,12.50
2019-04-28T10:41:53.227Z,12.40
2019-04-28T10:44:27.688Z,12.30
2019-04-28T10:47:00.876Z,12.30
2019-04-28T10:49:34.268Z,12.10
2019-04-28T10:52:07.287Z,12.10
2019-04-28T10:54:40.317Z,12.20
2019-04-28T10:57:14.008Z,12.10
2019-04-28T10:59:46.972Z,12.10
2019-04-28T11:02:20.168Z,12.20
2019-04-28T11:05:08.075Z,12.30
2019-04-28T11:07:36.231Z,12.40
2019-04-28T11:10:13.731Z,12.40
2019-04-28T11:12:46.668Z,12.60
2019-04-28T11:15:24.136Z,12.10
2019-04-28T11:17:57.228Z,12.50
2019-04-28T11:20:30.748Z,12.50
2019-04-28T11:23:03.862Z,12.70
2019-04-28T11:25:36.892Z,13.30
2019-04-28T11:28:10.708Z,13.80
2019-04-28T11:30:44.428Z,13.80
2019-04-28T11:33:28.088Z,13.70
2019-04-28T11:36:01.228Z,13.40
2019-04-28T11:38:34.048Z,13.30
2019-04-28T11:41:07.837Z,13.40
2019-04-28T11:43:40.717Z,13.00
2019-04-28T11:46:16.208Z,13.10
2019-04-28T11:48:49.269Z,12.90
2019-04-28T11:51:22.192Z,12.80
2019-04-28T11:53:55.117Z,12.90
2019-04-28T11:56:40.492Z,12.80
2019-04-28T11:59:02.629Z,13.00
2019-04-28T12:01:35.688Z,13.20
2019-04-28T12:04:10.208Z,13.30
2019-04-28T12:06:43.037Z,13.20
2019-04-28T12:09:17.515Z,13.10
2019-04-28T12:11:51.988Z,13.10
2019-04-28T12:14:29.449Z,13.00
2019-04-28T12:17:02.100Z,12.90
2019-04-28T12:19:38.351Z,12.80
2019-04-28T12:22:12.756Z,13.10
2019-04-28T12:24:45.618Z,13.30
2019-04-28T12:27:19.027Z,13.50
2019-04-28T12:29:51.936Z,13.60
2019-04-28T12:32:24.789Z,13.50
2019-04-28T12:34:57.637Z,13.50
2019-04-28T12:37:30.392Z,13.60
2019-04-28T12:40:03.325Z,13.70
2019-04-28T12:42:36.147Z,13.80
2019-04-28T12:45:08.959Z,14.00
2019-04-28T12:47:41.768Z,14.20
2019-04-28T12:50:19.136Z,14.30
2019-04-28T12:52:52.042Z,14.40
2019-04-28T12:55:24.796Z,14.30
2019-04-28T12:57:57.670Z,14.10
2019-04-28T13:00:38.072Z,13.90
2019-04-28T13:03:15.719Z,13.70
2019-04-28T13:06:01.590Z,13.80
2019-04-28T13:08:27.719Z,13.90
2019-04-28T13:11:00.788Z,13.90
2019-04-28T13:13:33.688Z,14.20
2019-04-28T13:16:06.648Z,14.20
2019-04-28T13:18:39.648Z,14.10
2019-04-28T13:21:12.987Z,14.00
2019-04-28T13:23:46.267Z,14.20
2019-04-28T13:26:19.190Z,14.60
2019-04-28T13:28:52.734Z,14.80
2019-04-28T13:31:25.655Z,15.00
2019-04-28T13:34:00.232Z,15.40
2019-04-28T13:36:33.233Z,15.50
2019-04-28T13:39:07.750Z,15.10
2019-04-28T13:41:40.592Z,14.60
2019-04-28T13:44:15.221Z,14.50
2019-04-28T13:46:48.413Z,14.40
2019-04-28T13:49:22.891Z,14.20
2019-04-28T13:51:55.930Z,14.30
2019-04-28T13:54:29.035Z,14.50
2019-04-28T13:57:02.003Z,14.60
2019-04-28T13:59:35.027Z,14.80
2019-04-28T14:02:12.656Z,14.80
2019-04-28T14:04:47.160Z,14.50
2019-04-28T14:07:20.095Z,14.00
2019-04-28T14:09:52.967Z,13.90
2019-04-28T14:12:26.647Z,15.00
2019-04-28T14:15:00.115Z,15.40
2019-04-28T14:17:33.108Z,15.80
2019-04-28T14:20:06.184Z,15.80
2019-04-28T14:22:39.627Z,15.60
2019-04-28T14:25:12.712Z,15.80
2019-04-28T14:27:45.794Z,16.10
2019-04-28T14:30:18.811Z,16.00
2019-04-28T14:32:52.011Z,15.10
2019-04-28T14:35:24.912Z,14.70
2019-04-28T14:37:58.060Z,15.00
2019-04-28T14:40:31.051Z,14.80
2019-04-28T14:43:05.095Z,14.90
2019-04-28T14:45:38.247Z,14.80
2019-04-28T14:48:11.187Z,14.40
2019-04-28T14:50:44.743Z,14.30
2019-04-28T14:53:17.913Z,14.10
2019-04-28T14:55:51.126Z,14.10
2019-04-28T14:58:24.267Z,13.90
2019-04-28T15:01:01.471Z,13.90
2019-04-28T15:03:36.143Z,14.40
2019-04-28T15:06:08.931Z,14.80
2019-04-28T15:08:49.379Z,14.60
2019-04-28T15:11:23.953Z,14.50
2019-04-28T15:13:57.030Z,14.00
2019-04-28T15:16:30.315Z,13.70
2019-04-28T15:19:03.330Z,13.30
2019-04-28T15:21:37.009Z,13.10
2019-04-28T15:24:10.232Z,13.40
2019-04-28T15:26:43.771Z,13.60
2019-04-28T15:29:17.291Z,13.90
2019-04-28T15:31:50.518Z,13.60
2019-04-28T15:34:23.971Z,13.30
2019-04-28T15:37:09.258Z,13.10
2019-04-28T15:39:31.771Z,12.90
2019-04-28T15:42:04.791Z,12.90
2019-04-28T15:44:37.710Z,12.70
2019-04-28T15:47:10.718Z,13.10
2019-04-28T15:49:44.411Z,13.30
2019-04-28T15:52:17.569Z,13.10
2019-04-28T15:54:50.577Z,12.90
2019-04-28T15:57:26.273Z,12.70
2019-04-28T15:59:59.668Z,12.60
2019-04-28T16:02:32.776Z,12.50
2019-04-28T16:05:05.847Z,12.80
2019-04-28T16:07:38.910Z,13.00
2019-04-28T16:10:12.031Z,12.90
2019-04-28T16:12:45.171Z,12.80
2019-04-28T16:15:18.251Z,12.60
2019-04-28T16:17:51.551Z,12.50
2019-04-28T16:20:24.490Z,12.50
2019-04-28T16:22:57.410Z,12.30
2019-04-28T16:25:30.549Z,12.20
2019-04-28T16:28:03.350Z,12.30
2019-04-28T16:30:36.519Z,12.20
2019-04-28T16:33:09.410Z,12.20
2019-04-28T16:35:43.042Z,12.20
2019-04-28T16:38:16.053Z,12.10
2019-04-28T16:40:50.970Z,11.90
2019-04-28T16:43:24.677Z,11.80
2019-04-28T16:45:57.591Z,11.80
2019-04-28T16:48:30.692Z,11.70
2019-04-28T16:51:03.551Z,11.60
2019-04-28T16:53:36.891Z,11.60
2019-04-28T16:56:17.468Z,11.70
2019-04-28T16:58:52.336Z,11.60
2019-04-28T17:01:32.548Z,11.50
2019-04-28T17:04:06.234Z,11.50
2019-04-28T17:06:39.509Z,11.40
2019-04-28T17:09:13.987Z,11.30
2019-04-28T17:11:47.436Z,11.20
2019-04-28T17:14:20.185Z,11.30
2019-04-28T17:16:52.991Z,11.30
2019-04-28T17:19:25.795Z,11.30
2019-04-28T17:22:00.824Z,11.20
2019-04-28T17:24:33.864Z,11.10
2019-04-28T17:27:06.743Z,11.00
2019-04-28T17:29:39.834Z,10.90
2019-04-28T17:32:12.730Z,11.00
2019-04-28T17:34:45.689Z,11.00
2019-04-28T17:37:18.569Z,10.80
2019-04-28T17:39:51.494Z,10.70
2019-04-28T17:42:24.949Z,10.60
2019-04-28T17:45:00.709Z,10.60
2019-04-28T17:47:33.790Z,10.50
2019-04-28T17:50:08.069Z,10.40
2019-04-28T17:52:40.968Z,10.40
2019-04-28T17:55:14.068Z,10.40
2019-04-28T17:57:46.976Z,10.40
2019-04-28T18:00:27.573Z,10.50
2019-04-28T18:03:14.488Z,10.50
2019-04-28T18:05:51.711Z,10.50
2019-04-28T18:08:24.912Z,10.50
2019-04-28T18:10:57.787Z,10.40
2019-04-28T18:13:31.288Z,10.40
2019-04-28T18:16:21.968Z,10.30
2019-04-28T18:18:57.738Z,10.40
2019-04-28T18:21:30.878Z,10.30
2019-04-28T18:24:04.015Z,10.30
2019-04-28T18:26:39.688Z,10.30
2019-04-28T18:29:13.369Z,10.40
2019-04-28T18:31:48.769Z,10.30
2019-04-28T18:34:39.352Z,10.20
2019-04-28T18:37:30.151Z,10.20
2019-04-28T18:40:07.650Z,10.20
2019-04-28T18:42:48.320Z,10.40
2019-04-28T18:45:21.631Z,10.30
2019-04-28T18:47:54.970Z,10.10
2019-04-28T18:50:28.149Z,10.10
2019-04-28T18:53:01.095Z,10.20
2019-04-28T18:55:34.295Z,10.20
2019-04-28T18:58:07.928Z,10.20
2019-04-28T19:00:42.224Z,10.30
2019-04-28T19:03:15.356Z,10.30
2019-04-28T19:05:49.907Z,10.30
2019-04-28T19:08:28.788Z,10.30
2019-04-28T19:11:03.216Z,10.50
2019-04-28T19:13:37.880Z,10.40
2019-04-28T19:16:21.488Z,10.50
2019-04-28T19:18:56.016Z,10.50
2019-04-28T19:21:28.968Z,10.50
2019-04-28T19:24:02.056Z,10.40
2019-04-28T19:26:35.811Z,10.30
2019-04-28T19:29:08.811Z,10.30
2019-04-28T19:31:41.830Z,10.30
2019-04-28T19:34:14.951Z,10.30
2019-04-28T19:36:47.927Z,10.30
2019-04-28T19:39:21.448Z,10.30
2019-04-28T19:41:54.756Z,10.10
2019-04-28T19:44:27.790Z,10.00
2019-04-28T19:47:00.671Z,9.90
2019-04-28T19:49:33.888Z,9.90
2019-04-28T19:52:07.148Z,9.90
2019-04-28T19:54:41.729Z,9.90
2019-04-28T19:57:22.368Z,9.70
2019-04-28T20:00:12.876Z,9.70
2019-04-28T20:02:46.195Z,9.80
2019-04-28T20:05:19.270Z,9.90
2019-04-28T20:07:52.149Z,9.70
2019-04-28T20:10:25.209Z,9.70
2019-04-28T20:12:58.728Z,9.70
2019-04-28T20:15:31.788Z,9.70
2019-04-28T20:18:04.830Z,9.70
2019-04-28T20:20:38.427Z,9.70
2019-04-28T20:23:11.476Z,9.70
2019-04-28T20:25:44.796Z,9.60
2019-04-28T20:28:17.848Z,9.50
2019-04-28T20:30:50.688Z,9.50
2019-04-28T20:33:23.669Z,9.40
2019-04-28T20:36:04.128Z,9.40
2019-04-28T20:38:37.178Z,9.50
2019-04-28T20:41:14.556Z,9.50
2019-04-28T20:43:47.288Z,9.60
2019-04-28T20:46:22.229Z,9.70
2019-04-28T20:48:55.295Z,9.70
2019-04-28T20:51:28.628Z,9.60
2019-04-28T20:54:01.536Z,9.60
2019-04-28T20:56:34.789Z,9.40
2019-04-28T20:59:07.776Z,9.30
2019-04-28T21:01:41.028Z,9.30
2019-04-28T21:04:15.528Z,9.00
2019-04-28T21:06:48.788Z,9.10
2019-04-28T21:09:21.757Z,8.90
2019-04-28T21:11:54.867Z,9.00
2019-04-28T21:14:27.749Z,9.00
2019-04-28T21:17:00.707Z,8.90
2019-04-28T21:19:33.628Z,8.80
2019-04-28T21:22:06.668Z,8.40
2019-04-28T21:24:40.109Z,7.90
2019-04-28T21:27:13.194Z,7.80
2019-04-28T21:29:46.309Z,7.80
2019-04-28T21:32:19.517Z,7.60
2019-04-28T21:34:52.575Z,7.40
2019-04-28T21:37:25.668Z,7.20
2019-04-28T21:39:58.776Z,7.10
2019-04-28T21:42:49.656Z,7.20
2019-04-28T21:45:27.036Z,7.20
2019-04-28T21:47:59.969Z,7.10
2019-04-28T21:50:33.169Z,7.10
2019-04-28T21:53:07.829Z,7.10
2019-04-28T21:55:40.916Z,7.10
2019-04-28T21:58:14.132Z,7.00
2019-04-28T22:00:54.997Z,7.00
2019-04-28T22:03:28.208Z,7.00
2019-04-28T22:06:01.149Z,7.00
2019-04-28T22:08:34.235Z,7.00
2019-04-28T22:11:07.249Z,7.00
2019-04-28T22:13:40.728Z,6.90
2019-04-28T22:16:14.311Z,7.00
2019-04-28T22:18:47.395Z,6.90
2019-04-28T22:21:20.491Z,7.00
2019-04-28T22:24:11.256Z,7.00
2019-04-28T22:26:45.595Z,7.10
2019-04-28T22:29:18.775Z,7.00
2019-04-28T22:31:51.708Z,7.00
2019-04-28T22:34:25.407Z,7.20
2019-04-28T22:36:58.512Z,7.20
2019-04-28T22:39:31.515Z,7.20
2019-04-28T22:42:04.536Z,6.90
2019-04-28T22:44:37.828Z,6.90
2019-04-28T22:47:10.695Z,6.80
2019-04-28T22:49:43.978Z,6.80
2019-04-28T22:52:16.809Z,6.50
2019-04-28T22:54:49.530Z,6.50
2019-04-28T22:57:37.469Z,6.40
2019-04-28T23:00:11.878Z,6.40
2019-04-28T23:02:44.790Z,6.20
2019-04-28T23:05:17.989Z,6.10
2019-04-28T23:07:51.030Z,6.20
2019-04-28T23:10:23.988Z,6.20
2019-04-28T23:12:56.950Z,6.20
2019-04-28T23:15:30.168Z,6.30
2019-04-28T23:18:03.068Z,6.20
2019-04-28T23:20:39.642Z,6.30
2019-04-28T23:23:13.628Z,6.10
2019-04-28T23:25:46.808Z,6.30
2019-04-28T23:28:20.747Z,6.30
2019-04-28T23:30:53.848Z,6.30
2019-04-28T23:33:27.328Z,6.30
2019-04-28T23:36:00.134Z,6.30
2019-04-28T23:38:33.048Z,6.40
2019-04-28T23:41:08.418Z,6.30
2019-04-28T23:43:41.508Z,6.30
2019-04-28T23:46:14.992Z,6.10
2019-04-28T23:48:48.168Z,6.00
2019-04-28T23:51:22.711Z,6.00
2019-04-28T23:53:59.951Z,6.00
2019-04-28T23:56:32.868Z,6.10
2019-04-28T23:59:06.168Z,6.20
